Time;durP1;ratioP1;P1;durP2;ratioP2;P2;SDS_P1;SDS_P2;PMS_P1;PMS_P2;Temp;Humidity;BMP_temperature;BMP_pressure;BME280_temperature;BME280_humidity;BME280_pressure;Samples;Min_cycle;Max_cycle;Signal;HPM_P1;HPM_P2
2023/12/13 00:01:45;;;;;;;28.63;14.50;;;8.10;99.90;;;;;;5049873;28;20045;-71
2023/12/13 00:04:11;;;;;;;31.25;13.70;;;8.10;99.90;;;;;;5050443;28;20052;-70
2023/12/13 00:06:37;;;;;;;31.02;15.15;;;8.10;99.90;;;;;;5050458;28;20128;-70
2023/12/13 00:09:03;;;;;;;31.80;14.95;;;8.20;99.90;;;;;;5050260;28;20087;-70
2023/12/13 00:11:29;;;;;;;28.80;14.15;;;8.10;99.90;;;;;;5050788;28;20427;-70
2023/12/13 00:13:57;;;;;;;28.15;12.95;;;8.00;99.90;;;;;;5052809;28;20040;-70
2023/12/13 00:16:23;;;;;;;25.10;12.38;;;8.10;99.90;;;;;;5053690;28;20041;-69
2023/12/13 00:18:51;;;;;;;28.27;13.68;;;8.30;99.90;;;;;;5054005;28;20056;-70
2023/12/13 00:21:20;;;;;;;22.63;10.93;;;8.10;99.90;;;;;;5053789;28;20076;-71
2023/12/13 00:23:46;;;;;;;22.00;11.18;;;8.30;99.90;;;;;;5053682;28;20052;-69
2023/12/13 00:26:18;;;;;;;23.38;11.60;;;8.20;99.90;;;;;;5055312;28;20048;-70
2023/12/13 00:28:45;;;;;;;21.73;11.25;;;8.20;99.90;;;;;;5054906;28;20044;-70
2023/12/13 00:31:11;;;;;;;27.48;12.27;;;8.10;99.90;;;;;;5053292;28;20045;-70
2023/12/13 00:33:38;;;;;;;24.75;13.00;;;8.80;99.90;;;;;;5053629;28;20060;-70
2023/12/13 00:36:04;;;;;;;26.80;14.25;;;8.10;99.90;;;;;;5053819;28;20052;-70
2023/12/13 00:38:30;;;;;;;26.77;14.18;;;8.10;99.90;;;;;;5053330;28;20053;-70
2023/12/13 00:40:55;;;;;;;28.15;13.48;;;8.00;99.90;;;;;;5053851;28;20510;-70
2023/12/13 00:43:21;;;;;;;32.05;15.07;;;8.30;99.90;;;;;;5053116;28;20036;-69
2023/12/13 00:45:48;;;;;;;28.25;13.07;;;8.00;99.90;;;;;;5053912;28;20053;-70
2023/12/13 00:48:14;;;;;;;24.27;11.77;;;8.00;99.90;;;;;;5053015;28;20099;-69
2023/12/13 00:50:40;;;;;;;25.73;13.18;;;8.10;99.90;;;;;;5052961;28;20044;-70
2023/12/13 00:53:06;;;;;;;29.02;14.63;;;8.00;99.90;;;;;;5053439;28;20467;-70
2023/12/13 00:55:34;;;;;;;26.98;14.45;;;8.10;99.90;;;;;;5053711;28;20146;-70
2023/12/13 00:58:00;;;;;;;24.60;13.68;;;8.00;99.90;;;;;;5052371;28;20168;-70
2023/12/13 01:00:26;;;;;;;27.10;14.43;;;8.00;99.90;;;;;;5054794;28;20085;-70
2023/12/13 01:02:52;;;;;;;22.85;13.13;;;8.10;99.90;;;;;;5053330;28;20052;-70
2023/12/13 01:05:18;;;;;;;25.65;15.10;;;8.10;99.90;;;;;;5053512;28;20095;-72
2023/12/13 01:07:44;;;;;;;21.63;12.95;;;8.10;99.90;;;;;;5054528;28;20057;-70
2023/12/13 01:10:10;;;;;;;23.85;14.13;;;8.10;99.90;;;;;;5054568;28;20032;-71
2023/12/13 01:12:35;;;;;;;22.80;12.77;;;8.10;99.90;;;;;;5053737;28;20424;-70
2023/12/13 01:15:01;;;;;;;24.33;13.25;;;8.10;99.90;;;;;;5054415;28;20079;-70
2023/12/13 01:17:29;;;;;;;26.58;15.40;;;8.20;99.90;;;;;;5051901;28;20048;-69
2023/12/13 01:19:55;;;;;;;28.08;14.55;;;8.20;99.90;;;;;;5050427;28;20439;-69
2023/12/13 01:22:20;;;;;;;25.80;14.82;;;8.20;99.90;;;;;;5051999;28;20037;-70
2023/12/13 01:24:52;;;;;;;23.17;12.95;;;8.50;99.90;;;;;;5050553;28;20088;-70
2023/12/13 01:27:18;;;;;;;23.20;13.07;;;8.20;99.90;;;;;;5049270;28;20065;-69
2023/12/13 01:29:44;;;;;;;27.25;14.27;;;8.60;99.90;;;;;;5051440;28;20044;-70
2023/12/13 01:32:12;;;;;;;25.30;13.93;;;8.10;99.90;;;;;;5050958;28;20466;-70
2023/12/13 01:34:38;;;;;;;28.10;14.18;;;8.10;99.90;;;;;;5049925;28;20061;-69
2023/12/13 01:37:03;;;;;;;25.02;12.70;;;8.00;99.90;;;;;;5052143;28;20393;-70
2023/12/13 01:39:29;;;;;;;;;;;8.00;99.90;;;;;;5052479;28;20029;-70
2023/12/13 01:41:54;;;;;;;24.30;11.90;;;8.50;99.90;;;;;;5052185;28;19959;-70
2023/12/13 01:44:21;;;;;;;23.65;10.90;;;7.90;99.90;;;;;;5052142;28;20033;-70
2023/12/13 01:47:05;;;;;;;19.50;11.43;;;8.00;99.90;;;;;;5052913;28;20570;-70
2023/12/13 01:49:31;;;;;;;24.77;11.57;;;7.90;99.90;;;;;;5051988;28;20033;-71
2023/12/13 01:51:57;;;;;;;23.92;11.40;;;8.20;99.90;;;;;;5052792;28;20056;-70
2023/12/13 01:54:24;;;;;;;23.08;11.27;;;7.80;99.90;;;;;;5051477;28;20052;-71
2023/12/13 01:56:51;;;;;;;19.42;9.80;;;7.80;99.90;;;;;;5052222;28;20489;-70
2023/12/13 01:59:17;;;;;;;20.33;10.40;;;7.80;99.90;;;;;;5051870;28;20393;-70
2023/12/13 02:01:43;;;;;;;22.83;10.40;;;7.70;99.90;;;;;;5051729;28;20052;-70
2023/12/13 02:04:14;;;;;;;17.38;9.40;;;7.80;99.90;;;;;;5051757;28;20040;-70
2023/12/13 02:06:43;;;;;;;17.33;8.77;;;7.90;99.90;;;;;;5052663;28;20067;-70
2023/12/13 02:09:09;;;;;;;16.15;8.73;;;7.80;99.90;;;;;;5050311;28;20047;-69
2023/12/13 02:11:35;;;;;;;19.83;8.57;;;7.80;99.90;;;;;;5052498;28;20135;-70
2023/12/13 02:14:02;;;;;;;13.48;7.50;;;7.80;99.90;;;;;;5051619;28;20049;-70
2023/12/13 02:16:28;;;;;;;19.65;9.02;;;8.10;99.90;;;;;;5050232;28;20057;-70
2023/12/13 02:18:53;;;;;;;16.25;8.43;;;8.00;99.90;;;;;;5051901;28;20076;-70
2023/12/13 02:21:24;;;;;;;16.73;8.27;;;7.90;99.90;;;;;;5051645;28;20041;-70
2023/12/13 02:23:58;;;;;;;18.83;9.27;;;8.00;99.90;;;;;;5050440;28;20394;-70
2023/12/13 02:26:24;;;;;;;19.20;9.40;;;7.90;99.90;;;;;;5052736;28;20466;-69
2023/12/13 02:28:54;;;;;;;18.83;10.05;;;7.90;99.90;;;;;;5050602;28;20041;-69
2023/12/13 02:31:21;;;;;;;20.77;9.90;;;7.80;99.90;;;;;;5050911;28;20053;-69
2023/12/13 02:33:46;;;;;;;20.55;10.10;;;7.80;99.90;;;;;;5051448;28;20520;-70
2023/12/13 02:36:12;;;;;;;16.45;8.25;;;7.80;99.90;;;;;;5050859;28;20056;-70
2023/12/13 02:38:40;;;;;;;17.67;9.23;;;7.90;99.90;;;;;;5051882;28;20044;-70
2023/12/13 02:41:06;;;;;;;17.00;8.77;;;8.40;99.90;;;;;;5051323;28;20134;-70
2023/12/13 02:43:32;;;;;;;19.35;9.38;;;8.00;99.90;;;;;;5050685;28;20110;-70
2023/12/13 02:45:58;;;;;;;;;;;8.10;99.90;;;;;;5052000;28;20045;-70
2023/12/13 02:48:27;;;;;;;16.60;9.18;;;8.00;99.90;;;;;;5052679;28;19956;-69
2023/12/13 02:50:52;;;;;;;17.80;8.60;;;8.10;99.90;;;;;;5050476;28;20053;-69
2023/12/13 02:53:19;;;;;;;19.52;10.30;;;8.00;99.90;;;;;;5050583;28;20352;-69
2023/12/13 02:55:45;;;;;;;15.45;8.68;;;8.00;99.90;;;;;;5051235;28;20473;-69
2023/12/13 02:58:11;;;;;;;20.13;9.95;;;8.00;99.90;;;;;;5051641;28;20047;-71
2023/12/13 03:00:36;;;;;;;17.65;9.55;;;8.10;99.90;;;;;;5051212;28;20048;-69
2023/12/13 03:03:02;;;;;;;17.90;8.13;;;8.00;99.90;;;;;;5050692;28;20037;-69
2023/12/13 03:05:28;;;;;;;16.42;7.95;;;8.00;99.90;;;;;;5050924;28;20049;-69
2023/12/13 03:07:53;;;;;;;17.30;9.13;;;8.00;99.90;;;;;;5051431;28;20059;-68
2023/12/13 03:10:19;;;;;;;;;;;8.00;99.90;;;;;;5051657;28;20049;-69
2023/12/13 03:12:48;;;;;;;17.77;8.98;;;8.00;99.90;;;;;;5050439;28;19920;-70
2023/12/13 03:15:14;;;;;;;18.33;9.38;;;8.00;99.90;;;;;;5051927;28;20128;-70
2023/12/13 03:17:40;;;;;;;19.85;9.25;;;7.90;99.90;;;;;;5051492;28;20131;-70
2023/12/13 03:20:06;;;;;;;17.17;8.65;;;7.90;99.90;;;;;;5051543;28;20052;-70
2023/12/13 03:22:32;;;;;;;16.92;8.75;;;7.80;99.90;;;;;;5051040;28;20060;-69
2023/12/13 03:24:57;;;;;;;22.65;10.00;;;8.10;99.90;;;;;;5051140;28;20041;-69
2023/12/13 03:27:23;;;;;;;;;;;7.90;99.90;;;;;;5050543;28;20076;-70
2023/12/13 03:29:48;;;;;;;18.20;9.55;;;7.90;99.90;;;;;;5051766;28;19928;-70
2023/12/13 03:32:14;;;;;;;16.30;8.38;;;7.90;99.90;;;;;;5050326;28;20045;-69
2023/12/13 03:34:42;;;;;;;20.33;10.02;;;7.80;99.90;;;;;;5050939;28;20496;-69
2023/12/13 03:37:08;;;;;;;19.90;9.15;;;7.90;99.90;;;;;;5052309;28;20056;-69
2023/12/13 03:39:34;;;;;;;19.05;9.45;;;7.90;99.90;;;;;;5050441;28;20060;-70
2023/12/13 03:42:00;;;;;;;24.35;9.93;;;7.80;99.90;;;;;;5050901;28;20510;-70
2023/12/13 03:44:27;;;;;;;17.48;9.70;;;8.40;99.90;;;;;;5052281;28;20433;-69
2023/12/13 03:46:56;;;;;;;18.83;9.25;;;7.90;99.90;;;;;;5050225;28;20045;-70
2023/12/13 03:49:22;;;;;;;15.82;8.45;;;7.90;99.90;;;;;;5053415;28;20037;-70
2023/12/13 03:51:50;;;;;;;17.80;9.13;;;8.10;99.90;;;;;;5055251;28;20403;-70
2023/12/13 03:54:16;;;;;;;18.67;9.80;;;8.00;99.90;;;;;;5055298;28;20049;-70
2023/12/13 03:56:45;;;;;;;18.83;9.52;;;8.00;99.90;;;;;;5054794;28;20044;-69
2023/12/13 03:59:10;;;;;;;16.75;8.82;;;7.90;99.90;;;;;;5055582;28;20041;-70
2023/12/13 04:01:36;;;;;;;17.80;8.60;;;7.90;99.90;;;;;;5054028;28;20381;-69
2023/12/13 04:04:02;;;;;;;16.33;9.00;;;8.00;99.90;;;;;;5054541;28;20144;-70
2023/12/13 04:06:28;;;;;;;20.63;9.90;;;7.90;99.90;;;;;;5055774;28;20492;-70
2023/12/13 04:08:54;;;;;;;20.38;9.50;;;7.90;99.90;;;;;;5053543;28;20063;-69
2023/12/13 04:11:20;;;;;;;22.35;9.23;;;7.80;99.90;;;;;;5055539;28;20473;-70
2023/12/13 04:13:45;;;;;;;19.90;9.85;;;7.80;99.90;;;;;;5054412;28;20078;-69
2023/12/13 04:16:11;;;;;;;16.50;8.70;;;7.80;99.90;;;;;;5053339;28;20045;-70
2023/12/13 04:18:37;;;;;;;19.85;10.00;;;7.90;99.90;;;;;;5054073;28;20408;-70
2023/12/13 04:21:03;;;;;;;17.30;9.52;;;7.90;99.90;;;;;;5053774;28;20509;-70
2023/12/13 04:23:29;;;;;;;21.30;9.80;;;7.80;99.90;;;;;;5053558;28;20053;-69
2023/12/13 04:25:54;;;;;;;;;;;7.80;99.90;;;;;;5054816;28;20068;-70
2023/12/13 04:28:20;;;;;;;21.70;10.45;;;7.80;99.90;;;;;;5053692;28;19951;-70
2023/12/13 04:30:49;;;;;;;18.13;9.75;;;7.70;99.90;;;;;;5051708;28;20057;-69
2023/12/13 04:33:18;;;;;;;19.50;9.45;;;7.70;99.90;;;;;;5053231;28;20453;-69
2023/12/13 04:35:51;;;;;;;22.52;10.93;;;7.90;99.90;;;;;;5053529;28;20064;-70
2023/12/13 04:38:16;;;;;;;15.88;9.13;;;7.70;99.90;;;;;;5053856;28;20060;-70
2023/12/13 04:40:42;;;;;;;17.58;10.25;;;7.70;99.90;;;;;;5053939;28;20128;-70
2023/12/13 04:43:07;;;;;;;;;;;7.80;99.90;;;;;;5053058;28;20076;-69
2023/12/13 04:45:33;;;;;;;23.70;11.57;;;7.80;99.90;;;;;;5053701;28;20000;-71
2023/12/13 04:47:58;;;;;;;27.23;12.57;;;7.70;99.90;;;;;;5052801;28;20478;-69
2023/12/13 04:50:24;;;;;;;21.25;10.85;;;7.70;99.90;;;;;;5053263;28;20045;-69
2023/12/13 04:52:50;;;;;;;22.70;11.55;;;7.90;99.90;;;;;;5053865;28;20562;-69
2023/12/13 04:55:15;;;;;;;;;;;8.20;99.90;;;;;;5054308;28;20051;-69
2023/12/13 04:57:41;;;;;;;23.73;11.90;;;7.70;99.90;;;;;;5054303;28;19974;-69
2023/12/13 05:00:09;;;;;;;;;;;7.90;99.90;;;;;;5052276;28;20057;-70
2023/12/13 05:02:35;;;;;;;22.08;11.63;;;7.70;99.90;;;;;;5054490;28;19990;-70
2023/12/13 05:05:01;;;;;;;27.08;11.85;;;7.70;99.90;;;;;;5052450;28;20493;-70
2023/12/13 05:07:27;;;;;;;25.50;11.95;;;7.70;99.90;;;;;;5052518;28;20099;-70
2023/12/13 05:09:54;;;;;;;27.45;13.18;;;7.70;99.90;;;;;;5053076;28;20045;-69
2023/12/13 05:12:20;;;;;;;29.73;13.27;;;7.70;99.90;;;;;;5052640;28;20048;-70
2023/12/13 05:14:52;;;;;;;29.38;13.05;;;8.30;99.90;;;;;;5052701;28;20041;-70
2023/12/13 05:17:17;;;;;;;27.45;14.43;;;7.50;99.90;;;;;;5053046;28;20057;-70
2023/12/13 05:19:43;;;;;;;28.48;14.00;;;7.60;99.90;;;;;;5053311;28;20515;-70
2023/12/13 05:22:08;;;;;;;;;;;7.50;99.90;;;;;;5052676;28;20055;-69
2023/12/13 05:24:34;;;;;;;27.25;13.15;;;7.50;99.90;;;;;;5053423;28;19956;-69
2023/12/13 05:26:59;;;;;;;25.50;12.82;;;7.60;99.90;;;;;;5052259;28;20562;-69
2023/12/13 05:29:25;;;;;;;23.85;12.35;;;7.50;99.90;;;;;;5053247;28;20099;-69
2023/12/13 05:31:51;;;;;;;25.60;13.35;;;7.50;99.90;;;;;;5052899;28;20144;-69
2023/12/13 05:34:17;;;;;;;29.70;14.48;;;7.50;99.90;;;;;;5052205;28;20060;-69
2023/12/13 05:36:42;;;;;;;29.25;14.02;;;7.50;99.90;;;;;;5054167;28;20045;-69
2023/12/13 05:39:09;;;;;;;30.95;13.98;;;7.50;99.90;;;;;;5051731;28;20050;-69
2023/12/13 05:41:35;;;;;;;31.05;14.73;;;7.50;99.90;;;;;;5052112;28;20136;-69
2023/12/13 05:44:00;;;;;;;31.92;14.95;;;7.50;99.90;;;;;;5052129;28;20175;-69
2023/12/13 05:46:26;;;;;;;24.85;13.23;;;7.50;99.90;;;;;;5032154;28;20136;-69
2023/12/13 05:48:52;;;;;;;26.50;14.48;;;7.60;99.90;;;;;;5033082;28;20393;-69
2023/12/13 05:51:18;;;;;;;27.30;13.80;;;7.60;99.90;;;;;;5052114;28;20413;-72
2023/12/13 05:53:43;;;;;;;30.00;14.38;;;7.70;99.90;;;;;;5051734;28;20047;-72
2023/12/13 05:56:10;;;;;;;;;;;7.60;99.90;;;;;;5052747;28;20044;-74
2023/12/13 05:58:36;;;;;;;27.10;14.45;;;7.60;99.90;;;;;;5052523;28;19920;-73
2023/12/13 06:01:02;;;;;;;;;;;7.70;99.90;;;;;;5052988;28;20045;-70
2023/12/13 06:03:28;;;;;;;25.42;13.35;;;8.30;99.90;;;;;;5053750;28;20395;-70
2023/12/13 06:05:55;;;;;;;31.08;14.60;;;7.70;99.90;;;;;;5052291;28;20049;-69
2023/12/13 06:08:21;;;;;;;29.38;14.43;;;7.70;99.90;;;;;;5051007;28;20515;-70
2023/12/13 06:10:50;;;;;;;27.40;14.07;;;7.70;99.90;;;;;;5052191;28;20132;-72
2023/12/13 06:13:17;;;;;;;31.27;13.63;;;7.60;99.90;;;;;;5051574;28;20041;-73
2023/12/13 06:15:44;;;;;;;26.70;12.95;;;7.70;99.90;;;;;;5050344;28;20080;-75
2023/12/13 06:18:09;;;;;;;30.15;14.40;;;7.70;99.90;;;;;;5051651;28;20048;-75
2023/12/13 06:20:35;;;;;;;31.52;14.98;;;7.80;99.90;;;;;;5051894;28;20099;-72
2023/12/13 06:23:00;;;;;;;29.65;15.05;;;7.80;99.90;;;;;;5050875;28;20405;-75
2023/12/13 06:25:26;;;;;;;;;;;8.30;99.90;;;;;;5052534;28;20056;-75
2023/12/13 06:27:51;;;;;;;31.08;14.85;;;7.80;99.90;;;;;;5051639;28;20030;-74
2023/12/13 06:30:17;;;;;;;38.05;15.82;;;7.80;99.90;;;;;;5050601;28;20049;-74
2023/12/13 06:32:43;;;;;;;32.33;13.85;;;7.80;99.90;;;;;;5051341;28;20041;-75
2023/12/13 06:35:09;;;;;;;33.47;13.05;;;7.70;99.90;;;;;;5050634;28;20049;-73
2023/12/13 06:37:35;;;;;;;29.10;14.45;;;7.80;99.90;;;;;;5051946;28;20039;-69
2023/12/13 06:40:00;;;;;;;32.75;15.02;;;7.80;99.90;;;;;;5051690;28;20404;-70
2023/12/13 06:42:28;;;;;;;33.15;14.95;;;7.80;99.90;;;;;;5050390;28;20049;-70
2023/12/13 06:44:55;;;;;;;29.98;14.75;;;7.80;99.90;;;;;;5050719;28;20060;-71
2023/12/13 06:47:21;;;;;;;48.58;16.08;;;7.80;99.90;;;;;;5050614;28;20051;-71
2023/12/13 06:49:46;;;;;;;38.50;16.35;;;7.80;99.90;;;;;;5050745;28;20045;-70
2023/12/13 06:52:12;;;;;;;;;;;8.20;99.90;;;;;;5051583;28;20077;-71
2023/12/13 06:54:38;;;;;;;34.97;15.63;;;7.80;99.90;;;;;;5049455;28;19924;-71
2023/12/13 06:57:04;;;;;;;35.38;14.73;;;7.70;99.90;;;;;;5048833;28;20124;-71
2023/12/13 06:59:30;;;;;;;34.53;15.63;;;7.90;99.90;;;;;;5049701;28;20457;-70
2023/12/13 07:01:55;;;;;;;42.95;16.20;;;7.80;99.90;;;;;;5048778;28;20127;-70
2023/12/13 07:04:21;;;;;;;;;;;7.80;99.90;;;;;;5048955;28;20045;-71
2023/12/13 07:06:50;;;;;;;34.92;15.35;;;7.80;99.90;;;;;;5050842;28;20320;-70
2023/12/13 07:09:18;;;;;;;42.22;16.42;;;7.70;99.90;;;;;;5050602;28;20049;-71
2023/12/13 07:11:46;;;;;;;46.97;16.05;;;8.00;99.90;;;;;;5050375;28;20060;-70
2023/12/13 07:14:15;;;;;;;40.47;15.38;;;7.80;99.90;;;;;;5051205;28;20049;-70
2023/12/13 07:16:42;;;;;;;40.42;15.30;;;7.70;99.90;;;;;;5051337;28;20037;-70
2023/12/13 07:19:13;;;;;;;36.17;15.63;;;7.70;99.90;;;;;;5050133;28;20045;-70
2023/12/13 07:21:38;;;;;;;33.63;15.63;;;7.80;99.90;;;;;;5051779;28;20047;-69
2023/12/13 07:24:04;;;;;;;35.20;16.13;;;7.80;99.90;;;;;;5053387;28;20044;-70
2023/12/13 07:26:30;;;;;;;35.92;15.68;;;7.80;99.90;;;;;;5054540;28;20488;-73
2023/12/13 07:28:56;;;;;;;41.92;16.48;;;7.80;99.90;;;;;;5055346;28;20176;-69
2023/12/13 07:31:23;;;;;;;39.22;16.52;;;7.90;99.90;;;;;;5053765;28;20055;-71
2023/12/13 07:33:48;;;;;;;37.40;15.55;;;7.80;99.90;;;;;;5055215;28;20436;-70
2023/12/13 07:36:14;;;;;;;39.33;15.57;;;7.80;99.90;;;;;;5056164;28;20070;-68
2023/12/13 07:38:41;;;;;;;37.28;14.90;;;7.80;99.90;;;;;;5054328;28;20051;-69
2023/12/13 07:41:07;;;;;;;33.25;13.80;;;8.20;99.90;;;;;;5054465;28;20132;-70
2023/12/13 07:43:33;;;;;;;34.80;13.98;;;7.90;99.90;;;;;;5055170;28;20072;-69
2023/12/13 07:45:58;;;;;;;26.75;13.85;;;7.90;99.90;;;;;;5054977;28;20515;-72
2023/12/13 07:48:28;;;;;;;35.90;15.15;;;7.90;99.90;;;;;;5051252;28;20060;-70
2023/12/13 07:50:54;;;;;;;32.03;14.10;;;7.90;99.90;;;;;;5054939;28;20090;-69
2023/12/13 07:53:19;;;;;;;35.28;15.20;;;7.90;99.90;;;;;;5052135;28;20057;-69
2023/12/13 07:55:46;;;;;;;33.50;15.65;;;7.90;99.90;;;;;;5054858;28;20041;-69
2023/12/13 07:58:12;;;;;;;33.22;15.20;;;7.80;99.90;;;;;;5055256;28;20052;-70
2023/12/13 08:00:38;;;;;;;32.03;14.57;;;7.90;99.90;;;;;;5052436;28;20041;-71
2023/12/13 08:03:04;;;;;;;34.20;16.00;;;7.90;99.90;;;;;;5055449;28;20041;-70
2023/12/13 08:05:29;;;;;;;34.55;15.10;;;7.80;99.90;;;;;;5054463;28;20126;-70
2023/12/13 08:07:55;;;;;;;32.20;15.45;;;7.80;99.90;;;;;;5055022;28;20132;-69
2023/12/13 08:10:21;;;;;;;42.63;16.23;;;8.70;99.90;;;;;;5054386;28;20051;-69
2023/12/13 08:12:47;;;;;;;37.97;15.40;;;7.80;99.90;;;;;;5055670;28;20127;-69
2023/12/13 08:15:13;;;;;;;37.17;16.63;;;7.80;99.90;;;;;;5054650;28;20485;-70
2023/12/13 08:17:38;;;;;;;38.47;17.33;;;7.90;99.90;;;;;;5054475;28;20048;-71
2023/12/13 08:20:06;;;;;;;39.63;17.45;;;7.80;99.90;;;;;;5054229;28;20085;-70
2023/12/13 08:22:32;;;;;;;35.28;16.98;;;7.80;99.90;;;;;;5053296;28;20063;-70
2023/12/13 08:24:57;;;;;;;42.92;17.02;;;7.80;99.90;;;;;;5054002;28;20128;-70
2023/12/13 08:27:23;;;;;;;36.30;16.63;;;8.00;99.90;;;;;;5055390;28;20041;-70
2023/12/13 08:29:48;;;;;;;41.08;17.30;;;7.80;99.90;;;;;;5053486;28;20568;-69
2023/12/13 08:32:17;;;;;;;41.30;17.30;;;7.80;99.90;;;;;;5053783;28;20049;-70
2023/12/13 08:34:42;;;;;;;41.60;17.58;;;7.80;99.90;;;;;;5052442;28;20060;-69
2023/12/13 08:37:10;;;;;;;37.42;17.65;;;7.80;99.90;;;;;;5053741;28;20049;-71
2023/12/13 08:39:36;;;;;;;42.17;17.77;;;7.80;99.90;;;;;;5055048;28;20045;-70
2023/12/13 08:42:03;;;;;;;44.65;17.83;;;7.80;99.90;;;;;;5054015;28;20087;-70
2023/12/13 08:44:29;;;;;;;45.42;18.52;;;7.80;99.90;;;;;;5054170;28;20480;-71
2023/12/13 08:46:55;;;;;;;42.60;20.70;;;7.80;99.90;;;;;;5053268;28;20048;-69
2023/12/13 08:49:21;;;;;;;40.85;17.10;;;7.90;99.90;;;;;;5051823;28;20658;-69
2023/12/13 08:51:54;;;;;;;39.13;17.90;;;7.90;99.90;;;;;;5044116;28;20510;-69
2023/12/13 08:54:20;;;;;;;42.65;17.20;;;7.90;99.90;;;;;;5053412;28;20060;-69
2023/12/13 08:56:46;;;;;;;40.15;17.65;;;8.30;99.90;;;;;;5054490;28;20380;-70
2023/12/13 08:59:11;;;;;;;41.30;17.95;;;7.90;99.90;;;;;;5054416;28;20128;-70
2023/12/13 09:01:37;;;;;;;40.88;19.98;;;7.90;99.90;;;;;;5054544;28;20131;-70
2023/12/13 09:04:03;;;;;;;43.13;18.90;;;7.90;99.90;;;;;;5052080;28;20037;-69
2023/12/13 09:06:28;;;;;;;44.60;19.75;;;7.90;99.90;;;;;;5053694;28;20098;-70
2023/12/13 09:08:58;;;;;;;41.97;20.55;;;8.00;99.90;;;;;;5053429;28;20052;-70
2023/12/13 09:11:27;;;;;;;48.03;20.63;;;8.00;99.90;;;;;;5053683;28;20040;-70
2023/12/13 09:13:52;;;;;;;44.55;19.52;;;8.00;99.90;;;;;;5054585;28;20059;-71
2023/12/13 09:16:18;;;;;;;45.55;19.90;;;8.00;99.90;;;;;;5053259;28;20045;-70
2023/12/13 09:18:44;;;;;;;46.80;19.73;;;8.00;99.90;;;;;;5053761;28;20045;-70
2023/12/13 09:21:10;;;;;;;51.05;20.52;;;8.00;99.90;;;;;;5052218;28;20481;-70
2023/12/13 09:23:36;;;;;;;39.58;19.38;;;8.00;99.90;;;;;;5052974;28;20052;-70
2023/12/13 09:26:04;;;;;;;44.00;20.17;;;8.00;99.90;;;;;;5052198;28;20049;-70
2023/12/13 09:28:29;;;;;;;46.75;21.92;;;8.00;99.90;;;;;;5054313;28;20404;-70
2023/12/13 09:30:55;;;;;;;38.42;20.52;;;8.10;99.90;;;;;;5051709;28;20124;-69
2023/12/13 09:33:21;;;;;;;39.30;19.63;;;8.10;99.90;;;;;;5053609;28;20114;-70
2023/12/13 09:35:46;;;;;;;;;;;8.10;99.90;;;;;;5054738;28;20060;-70
2023/12/13 09:38:12;;;;;;;42.10;17.90;;;8.10;99.90;;;;;;5051852;28;19931;-70
2023/12/13 09:40:38;;;;;;;41.22;19.67;;;8.10;99.90;;;;;;5054060;28;20041;-70
2023/12/13 09:43:04;;;;;;;42.28;18.85;;;8.10;99.90;;;;;;5053775;28;20051;-70
2023/12/13 09:45:31;;;;;;;40.05;19.20;;;8.10;99.90;;;;;;5051366;28;20541;-71
2023/12/13 09:47:57;;;;;;;39.70;19.02;;;8.30;99.90;;;;;;5052766;28;20092;-70
2023/12/13 09:50:28;;;;;;;59.42;31.65;;;8.20;99.90;;;;;;5052314;28;20041;-70
2023/12/13 09:52:55;;;;;;;96.95;48.17;;;8.20;99.90;;;;;;5053064;28;20116;-70
2023/12/13 09:55:24;;;;;;;74.50;38.88;;;8.30;99.90;;;;;;5053550;28;20092;-69
2023/12/13 09:57:50;;;;;;;51.25;29.35;;;8.30;99.90;;;;;;5052549;28;20060;-70
2023/12/13 10:00:18;;;;;;;55.17;29.67;;;8.30;99.90;;;;;;5051199;28;20049;-70
2023/12/13 10:02:46;;;;;;;53.13;27.35;;;8.30;99.90;;;;;;5052054;28;20080;-70
2023/12/13 10:05:15;;;;;;;49.25;25.20;;;8.80;99.90;;;;;;5051538;28;20063;-70
2023/12/13 10:07:41;;;;;;;46.65;21.00;;;8.40;99.90;;;;;;5051469;28;20057;-70
2023/12/13 10:10:07;;;;;;;39.35;19.85;;;8.40;99.90;;;;;;5051723;28;20059;-70
2023/12/13 10:12:33;;;;;;;44.33;21.23;;;8.50;99.90;;;;;;5053585;28;20053;-71
2023/12/13 10:15:07;;;;;;;42.55;21.48;;;9.00;99.90;;;;;;5051390;28;20404;-71
2023/12/13 10:17:33;;;;;;;41.28;21.00;;;8.50;99.90;;;;;;5053006;28;20052;-70
2023/12/13 10:20:06;;;;;;;46.50;21.00;;;8.50;99.90;;;;;;5053067;28;20384;-70
2023/12/13 10:22:32;;;;;;;39.85;20.23;;;8.30;99.90;;;;;;5051791;28;20404;-71
2023/12/13 10:24:58;;;;;;;40.42;19.80;;;8.50;99.90;;;;;;5052041;28;20124;-71
2023/12/13 10:27:24;;;;;;;35.95;19.00;;;8.50;99.90;;;;;;5050603;28;20045;-70
2023/12/13 10:29:55;;;;;;;34.97;18.83;;;8.50;99.90;;;;;;5051733;28;20036;-70
2023/12/13 10:32:21;;;;;;;38.20;19.95;;;8.50;99.90;;;;;;5051970;28;20480;-71
2023/12/13 10:34:47;;;;;;;45.63;18.95;;;8.50;99.90;;;;;;5050779;28;20081;-70
2023/12/13 10:37:26;;;;;;;38.88;19.73;;;8.50;99.90;;;;;;5052802;28;20500;-70
2023/12/13 10:39:56;;;;;;;36.45;19.58;;;8.50;99.90;;;;;;5051746;28;20125;-70
2023/12/13 10:42:24;;;;;;;37.92;18.63;;;8.60;99.90;;;;;;5050751;28;20127;-71
2023/12/13 10:44:51;;;;;;;43.55;20.00;;;8.60;99.90;;;;;;5052510;28;20046;-71
2023/12/13 10:47:23;;;;;;;36.17;19.92;;;8.90;99.90;;;;;;5051320;28;20057;-71
2023/12/13 10:49:54;;;;;;;39.97;21.70;;;8.70;99.90;;;;;;5052064;28;20041;-71
2023/12/13 10:52:21;;;;;;;38.35;20.42;;;8.70;99.90;;;;;;5051072;28;20067;-71
2023/12/13 10:54:52;;;;;;;40.30;20.90;;;8.70;99.90;;;;;;5051567;28;20053;-71
2023/12/13 10:57:17;;;;;;;42.42;21.00;;;8.80;99.90;;;;;;5050435;28;20063;-70
2023/12/13 10:59:48;;;;;;;38.63;21.52;;;8.80;99.90;;;;;;5052802;28;20040;-70
2023/12/13 11:02:18;;;;;;;38.58;21.42;;;8.80;99.90;;;;;;5050993;28;20487;-70
2023/12/13 11:04:44;;;;;;;40.47;20.75;;;8.80;99.90;;;;;;5050933;28;20043;-71
2023/12/13 11:07:11;;;;;;;47.30;22.40;;;8.80;99.90;;;;;;5051030;28;20056;-71
2023/12/13 11:09:52;;;;;;;39.80;21.17;;;8.80;99.90;;;;;;5050645;28;20041;-71
2023/12/13 11:12:21;;;;;;;40.10;21.02;;;8.80;99.90;;;;;;5051324;28;20553;-71
2023/12/13 11:14:51;;;;;;;40.13;22.08;;;9.10;99.90;;;;;;5034286;28;20052;-70
2023/12/13 11:17:19;;;;;;;45.95;22.45;;;8.80;99.90;;;;;;5051492;28;20048;-70
2023/12/13 11:19:46;;;;;;;40.72;21.55;;;8.90;99.90;;;;;;5052586;28;20072;-70
2023/12/13 11:22:14;;;;;;;41.40;22.00;;;8.90;99.90;;;;;;5050754;28;20098;-70
2023/12/13 11:24:41;;;;;;;40.28;21.98;;;8.90;99.90;;;;;;5051894;28;20250;-71
2023/12/13 11:27:13;;;;;;;39.22;21.33;;;9.00;99.90;;;;;;5051190;28;20056;-69
2023/12/13 11:29:44;;;;;;;38.83;20.90;;;9.40;99.90;;;;;;5051457;28;20062;-70
2023/12/13 11:32:10;;;;;;;42.00;21.30;;;8.90;99.90;;;;;;5049917;28;20077;-70
2023/12/13 11:34:47;;;;;;;42.88;23.17;;;8.90;99.90;;;;;;5051044;28;20057;-69
2023/12/13 11:37:13;;;;;;;43.55;23.55;;;8.90;99.90;;;;;;5050101;28;20048;-68
2023/12/13 11:39:40;;;;;;;41.58;21.50;;;8.90;99.90;;;;;;5045366;28;20057;-69
2023/12/13 11:42:08;;;;;;;45.05;22.73;;;8.90;99.90;;;;;;5051042;28;20540;-71
2023/12/13 11:44:36;;;;;;;47.05;22.60;;;8.90;99.90;;;;;;5049831;28;20181;-71
2023/12/13 11:47:07;;;;;;;39.97;20.77;;;8.90;99.90;;;;;;5051941;28;20578;-71
2023/12/13 11:49:36;;;;;;;41.20;22.00;;;8.90;99.90;;;;;;5050287;28;20061;-72
2023/12/13 11:52:05;;;;;;;37.17;20.83;;;8.80;99.90;;;;;;5049838;28;20041;-71
2023/12/13 11:54:32;;;;;;;37.83;20.17;;;8.90;99.90;;;;;;5051072;28;20059;-71
2023/12/13 11:56:59;;;;;;;37.55;19.15;;;8.90;99.90;;;;;;5046892;28;20076;-70
2023/12/13 11:59:25;;;;;;;34.70;18.92;;;8.90;99.90;;;;;;5050430;28;20396;-69
2023/12/13 12:01:53;;;;;;;37.85;19.77;;;8.90;99.90;;;;;;5049860;28;20045;-70
2023/12/13 12:04:19;;;;;;;43.75;23.80;;;8.90;99.90;;;;;;5050386;28;20382;-72
2023/12/13 12:06:55;;;;;;;42.65;23.30;;;8.90;99.90;;;;;;5049667;28;20045;-73
2023/12/13 12:09:25;;;;;;;34.42;19.55;;;8.90;99.90;;;;;;5051150;28;20423;-73
2023/12/13 12:11:54;;;;;;;31.40;17.05;;;8.90;99.90;;;;;;5055325;28;20155;-75
2023/12/13 12:14:24;;;;;;;34.58;17.73;;;8.90;99.90;;;;;;5049446;28;20496;-71
2023/12/13 12:16:50;;;;;;;31.52;16.95;;;8.90;99.90;;;;;;5054796;28;20061;-71
2023/12/13 12:19:18;;;;;;;31.35;17.33;;;8.90;99.90;;;;;;5057116;28;20041;-72
2023/12/13 12:21:47;;;;;;;35.08;17.73;;;9.00;99.90;;;;;;5054528;28;20041;-72
2023/12/13 12:24:12;;;;;;;31.08;16.95;;;9.00;99.90;;;;;;5053956;28;20120;-75
2023/12/13 12:26:38;;;;;;;32.58;17.83;;;9.00;99.90;;;;;;5050657;28;20149;-74
2023/12/13 12:29:04;;;;;;;30.30;17.00;;;9.00;99.90;;;;;;5054227;28;20045;-76
2023/12/13 12:31:30;;;;;;;26.05;14.57;;;9.40;99.90;;;;;;5054930;28;20037;-75
2023/12/13 12:34:02;;;;;;;32.35;16.13;;;9.00;99.90;;;;;;5052886;28;20045;-70
2023/12/13 12:36:28;;;;;;;32.45;15.52;;;9.00;99.90;;;;;;5053192;28;20118;-70
2023/12/13 12:38:56;;;;;;;33.95;15.95;;;9.00;99.90;;;;;;5053719;28;20052;-70
2023/12/13 12:41:27;;;;;;;31.48;14.68;;;9.00;99.90;;;;;;5053741;28;20041;-70